Time;durP1;ratioP1;P1;durP2;ratioP2;P2;SDS_P1;SDS_P2;PMS_P1;PMS_P2;Temp;Humidity;BMP_temperature;BMP_pressure;BME280_temperature;BME280_humidity;BME280_pressure;Samples;Min_cycle;Max_cycle;Signal;HPM_P1;HPM_P2
2022/04/23 00:02:03;;;;;;;19.67;17.88;;;9.30;99.90;;;;;;5054534;28;20257;-87
2022/04/23 00:04:32;;;;;;;30.55;17.17;;;9.40;99.90;;;;;;5054759;28;20198;-87
2022/04/23 00:07:01;;;;;;;18.73;17.00;;;9.40;99.90;;;;;;5054156;28;20210;-87
2022/04/23 00:09:30;;;;;;;21.42;19.25;;;9.30;99.90;;;;;;5054405;28;20286;-86
2022/04/23 00:11:59;;;;;;;21.15;18.83;;;9.30;99.90;;;;;;5054107;28;20225;-87
2022/04/23 00:14:28;;;;;;;20.80;18.63;;;9.40;99.90;;;;;;5054361;28;20237;-87
2022/04/23 00:17:00;;;;;;;19.55;17.67;;;9.40;99.90;;;;;;5053367;28;20259;-87
2022/04/23 00:19:29;;;;;;;20.45;18.42;;;9.40;99.90;;;;;;5054178;28;20205;-87
2022/04/23 00:21:58;;;;;;;19.98;18.08;;;9.40;99.90;;;;;;5054209;28;20226;-87
2022/04/23 00:24:26;;;;;;;21.10;19.05;;;9.40;99.90;;;;;;5054216;28;20210;-87
2022/04/23 00:26:55;;;;;;;19.60;17.67;;;9.40;99.90;;;;;;5054247;28;20202;-86
2022/04/23 00:29:23;;;;;;;21.05;18.88;;;9.40;99.90;;;;;;5054166;28;20229;-87
2022/04/23 00:31:52;;;;;;;20.35;18.40;;;9.40;99.90;;;;;;5053965;28;20313;-87
2022/04/23 00:34:22;;;;;;;20.92;18.92;;;9.50;99.90;;;;;;5053963;28;20202;-86
2022/04/23 00:36:50;;;;;;;20.65;18.50;;;9.50;99.90;;;;;;5053729;28;20257;-87
2022/04/23 00:39:19;;;;;;;24.00;20.23;;;9.50;99.90;;;;;;5053680;28;20246;-87
2022/04/23 00:41:48;;;;;;;23.45;21.05;;;9.50;99.90;;;;;;5036076;28;20284;-87
2022/04/23 00:44:17;;;;;;;26.02;19.85;;;9.50;99.90;;;;;;5053778;28;20201;-87
2022/04/23 00:46:46;;;;;;;23.35;21.00;;;9.50;99.90;;;;;;5053818;28;20251;-87
2022/04/23 00:49:14;;;;;;;23.23;20.38;;;9.50;99.90;;;;;;5053887;28;20218;-86
2022/04/23 00:51:45;;;;;;;22.75;20.45;;;9.60;99.90;;;;;;5053313;28;20269;-87
2022/04/23 00:54:13;;;;;;;24.48;21.95;;;9.50;99.90;;;;;;5053945;28;20205;-86
2022/04/23 00:56:41;;;;;;;25.95;23.13;;;9.60;99.90;;;;;;5053357;28;20221;-86
2022/04/23 00:59:12;;;;;;;24.45;22.08;;;9.60;99.90;;;;;;5053354;28;20252;-86
2022/04/23 01:01:41;;;;;;;27.75;24.35;;;9.60;99.90;;;;;;5053461;28;20264;-86
2022/04/23 01:04:12;;;;;;;26.55;23.52;;;9.60;99.90;;;;;;5053345;28;20209;-87
2022/04/23 01:06:44;;;;;;;30.55;24.67;;;9.60;99.90;;;;;;5053515;28;20206;-87
2022/04/23 01:09:14;;;;;;;45.88;24.83;;;9.60;99.90;;;;;;5054035;28;20202;-86
2022/04/23 01:11:43;;;;;;;26.88;23.65;;;9.60;99.90;;;;;;5053067;28;20283;-86
2022/04/23 01:14:12;;;;;;;33.58;25.90;;;9.60;99.90;;;;;;5053295;28;20249;-86
2022/04/23 01:16:40;;;;;;;30.73;26.17;;;9.60;99.90;;;;;;5052744;28;20229;-86
2022/04/23 01:19:09;;;;;;;30.27;27.20;;;9.70;99.90;;;;;;5052678;28;20206;-86
2022/04/23 01:21:39;;;;;;;33.63;26.60;;;9.60;99.90;;;;;;5053039;28;20260;-86
2022/04/23 01:24:08;;;;;;;28.02;25.23;;;9.60;99.90;;;;;;5053642;28;20251;-87
2022/04/23 01:26:37;;;;;;;31.58;27.83;;;9.60;99.90;;;;;;5052876;28;20202;-87
2022/04/23 01:29:05;;;;;;;29.20;25.67;;;9.60;99.90;;;;;;5052289;28;20304;-87
2022/04/23 01:31:34;;;;;;;27.17;24.38;;;9.60;99.90;;;;;;5052328;28;20229;-86
2022/04/23 01:34:04;;;;;;;31.63;28.33;;;9.60;99.90;;;;;;5053077;28;20210;-87
2022/04/23 01:36:32;;;;;;;29.83;26.65;;;9.60;99.90;;;;;;5052689;28;20264;-87
2022/04/23 01:39:03;;;;;;;29.90;26.98;;;9.60;99.90;;;;;;5053028;28;20256;-87
2022/04/23 01:41:31;;;;;;;31.30;27.98;;;9.60;99.90;;;;;;5052904;28;20229;-86
2022/04/23 01:44:00;;;;;;;34.55;30.52;;;9.60;99.90;;;;;;5053053;28;20201;-86
2022/04/23 01:46:28;;;;;;;32.88;29.40;;;9.60;99.90;;;;;;5053015;28;20197;-87
2022/04/23 01:48:57;;;;;;;32.50;29.02;;;9.60;99.90;;;;;;5052881;28;20220;-87
2022/04/23 01:51:26;;;;;;;33.15;29.38;;;9.60;99.90;;;;;;5052400;28;20233;-87
2022/04/23 01:53:55;;;;;;;34.60;30.85;;;9.50;99.90;;;;;;5053238;28;20205;-87
2022/04/23 01:56:25;;;;;;;33.90;30.33;;;9.60;99.90;;;;;;5052419;28;20275;-87
2022/04/23 01:58:53;;;;;;;35.05;30.20;;;9.60;99.90;;;;;;5053047;28;20210;-87
2022/04/23 02:01:22;;;;;;;32.70;29.27;;;9.50;99.90;;;;;;5052495;28;20221;-88
2022/04/23 02:03:51;;;;;;;34.90;30.60;;;9.50;99.90;;;;;;5052399;28;20289;-85
2022/04/23 02:06:20;;;;;;;35.05;30.88;;;9.50;99.90;;;;;;5052340;28;20236;-85
2022/04/23 02:08:49;;;;;;;35.80;30.40;;;9.60;99.90;;;;;;5052431;28;20229;-85
2022/04/23 02:11:18;;;;;;;38.47;31.77;;;9.60;99.90;;;;;;5052490;28;20259;-86
2022/04/23 02:13:49;;;;;;;39.70;32.70;;;9.50;99.90;;;;;;5052938;28;20235;-86
2022/04/23 02:16:17;;;;;;;36.28;31.20;;;9.50;99.90;;;;;;5052685;28;20226;-86
2022/04/23 02:18:46;;;;;;;36.60;32.35;;;9.50;99.90;;;;;;5052610;28;20212;-86
2022/04/23 02:21:14;;;;;;;36.67;31.60;;;9.50;99.90;;;;;;5051870;28;20316;-86
2022/04/23 02:23:43;;;;;;;33.92;30.40;;;9.50;99.90;;;;;;5052206;28;20211;-86
2022/04/23 02:26:12;;;;;;;37.95;31.85;;;9.50;99.90;;;;;;5052534;28;20197;-86
2022/04/23 02:28:41;;;;;;;34.25;30.60;;;9.50;99.90;;;;;;5052377;28;20211;-86
2022/04/23 02:31:11;;;;;;;35.38;29.27;;;9.50;99.90;;;;;;5051921;28;20272;-86
2022/04/23 02:33:39;;;;;;;33.97;30.33;;;9.50;99.90;;;;;;5052441;28;20202;-86
2022/04/23 02:36:08;;;;;;;30.75;27.65;;;9.50;99.90;;;;;;5052186;28;20268;-86
2022/04/23 02:38:39;;;;;;;31.92;28.48;;;9.50;99.90;;;;;;5052313;28;20205;-87
2022/04/23 02:41:07;;;;;;;31.02;27.33;;;9.50;99.90;;;;;;5054590;28;20221;-86
2022/04/23 02:43:38;;;;;;;28.33;25.17;;;9.40;99.90;;;;;;5056129;28;20293;-86
2022/04/23 02:46:07;;;;;;;27.45;24.58;;;9.40;99.90;;;;;;5056109;28;20209;-86
2022/04/23 02:48:37;;;;;;;30.17;26.05;;;9.40;99.90;;;;;;5055889;28;20208;-86
2022/04/23 02:51:05;;;;;;;27.88;25.05;;;9.40;99.90;;;;;;5056125;28;20229;-85
2022/04/23 02:53:34;;;;;;;29.25;24.48;;;9.40;99.90;;;;;;5057454;28;20263;-86
2022/04/23 02:56:05;;;;;;;26.92;23.67;;;9.40;99.90;;;;;;5058059;28;20211;-86
2022/04/23 02:58:34;;;;;;;27.35;24.67;;;9.40;99.90;;;;;;5056695;28;20206;-86
2022/04/23 03:01:02;;;;;;;25.88;22.63;;;9.30;99.90;;;;;;5056754;28;20221;-86
2022/04/23 03:03:31;;;;;;;27.60;24.92;;;9.30;99.90;;;;;;5057816;28;20305;-86
2022/04/23 03:06:01;;;;;;;25.55;22.80;;;9.30;99.90;;;;;;5057444;28;20206;-86
2022/04/23 03:08:30;;;;;;;28.08;22.98;;;9.30;99.90;;;;;;5055749;28;20293;-86
2022/04/23 03:10:59;;;;;;;25.00;22.23;;;9.30;99.90;;;;;;5055316;28;20256;-86
2022/04/23 03:13:27;;;;;;;24.77;22.08;;;9.30;99.90;;;;;;5055255;28;20210;-86
2022/04/23 03:15:56;;;;;;;29.42;22.90;;;9.30;99.90;;;;;;5055343;28;20225;-86
2022/04/23 03:18:26;;;;;;;29.05;23.35;;;9.30;99.90;;;;;;5055321;28;20236;-86
2022/04/23 03:20:55;;;;;;;30.92;24.05;;;9.30;99.90;;;;;;5055126;28;20224;-87
2022/04/23 03:23:25;;;;;;;23.00;20.83;;;9.30;99.90;;;;;;5055445;28;20205;-86
2022/04/23 03:25:53;;;;;;;28.48;22.70;;;9.30;99.90;;;;;;5054975;28;20269;-86
2022/04/23 03:28:22;;;;;;;25.42;22.17;;;9.30;99.90;;;;;;5055399;28;20214;-87
2022/04/23 03:30:50;;;;;;;23.80;21.40;;;9.30;99.90;;;;;;5055102;28;20228;-86
2022/04/23 03:33:19;;;;;;;26.83;23.73;;;9.20;99.90;;;;;;5055610;28;20216;-86
2022/04/23 03:35:47;;;;;;;28.20;25.15;;;9.20;99.90;;;;;;5054455;28;20210;-86
2022/04/23 03:38:16;;;;;;;24.33;21.83;;;9.20;99.90;;;;;;5054883;28;20225;-86
2022/04/23 03:40:53;;;;;;;25.95;23.35;;;9.20;99.90;;;;;;5054629;28;20224;-86
2022/04/23 03:43:22;;;;;;;27.67;21.85;;;9.20;99.90;;;;;;5055097;28;20201;-86
2022/04/23 03:45:50;;;;;;;24.90;22.23;;;9.20;99.90;;;;;;5054868;28;20252;-86
2022/04/23 03:48:19;;;;;;;25.77;22.98;;;9.10;99.90;;;;;;5054953;28;20218;-86
2022/04/23 03:50:48;;;;;;;24.50;22.00;;;9.20;99.90;;;;;;5054264;28;20240;-86
2022/04/23 03:53:17;;;;;;;29.80;23.00;;;9.20;99.90;;;;;;5053965;28;20206;-86
2022/04/23 03:55:47;;;;;;;26.17;22.63;;;9.20;99.90;;;;;;5054574;28;20209;-86
2022/04/23 03:58:15;;;;;;;23.50;21.08;;;9.20;99.90;;;;;;5054435;28;20308;-86
2022/04/23 04:00:43;;;;;;;24.17;21.50;;;9.20;99.90;;;;;;5054287;28;20201;-86
2022/04/23 04:03:12;;;;;;;27.00;21.05;;;9.20;99.90;;;;;;5054528;28;20201;-87
2022/04/23 04:05:40;;;;;;;23.48;19.55;;;9.20;99.90;;;;;;5054610;28;20217;-86
2022/04/23 04:08:12;;;;;;;25.42;21.73;;;9.20;99.90;;;;;;5054232;28;20285;-87
2022/04/23 04:10:40;;;;;;;23.00;20.70;;;9.20;99.90;;;;;;5054257;28;20217;-86
2022/04/23 04:13:10;;;;;;;23.23;20.83;;;9.20;99.90;;;;;;5054246;28;20233;-86
2022/04/23 04:15:40;;;;;;;24.55;21.95;;;9.20;99.90;;;;;;5054149;28;20241;-86
2022/04/23 04:18:08;;;;;;;24.30;21.50;;;9.20;99.90;;;;;;5054114;28;20214;-86
2022/04/23 04:20:41;;;;;;;23.98;20.90;;;9.20;99.90;;;;;;5053881;28;20206;-86
2022/04/23 04:23:09;;;;;;;22.30;20.25;;;9.20;99.90;;;;;;5054366;28;20205;-86
2022/04/23 04:25:38;;;;;;;27.00;21.05;;;9.20;99.90;;;;;;5054280;28;20206;-86
2022/04/23 04:28:07;;;;;;;21.30;19.25;;;9.20;99.90;;;;;;5053903;28;20262;-86
2022/04/23 04:33:19;;;;;;;20.83;18.85;;;9.20;99.90;;;;;;5053226;28;20213;-86
2022/04/23 04:35:48;;;;;;;23.15;20.90;;;9.20;99.90;;;;;;5053883;28;20209;-86
2022/04/23 04:38:22;;;;;;;21.55;19.40;;;9.20;99.90;;;;;;5053604;28;20241;-86
2022/04/23 04:40:51;;;;;;;22.05;19.13;;;9.20;99.90;;;;;;5053096;28;20231;-86
2022/04/23 04:43:20;;;;;;;23.00;20.70;;;9.20;99.90;;;;;;5053868;28;20210;-87
2022/04/23 04:45:50;;;;;;;23.30;20.90;;;9.20;99.90;;;;;;5053558;28;20230;-86
2022/04/23 04:48:18;;;;;;;24.35;20.20;;;9.20;99.90;;;;;;5053709;28;20205;-86
2022/04/23 04:50:47;;;;;;;23.33;21.00;;;9.20;99.90;;;;;;5053434;28;20288;-86
2022/04/23 04:53:15;;;;;;;22.23;19.63;;;9.20;99.90;;;;;;5053301;28;20245;-87
2022/04/23 04:55:44;;;;;;;23.00;19.00;;;9.20;99.90;;;;;;5053249;28;20232;-86
2022/04/23 04:58:12;;;;;;;20.75;18.58;;;9.20;99.90;;;;;;5053155;28;20294;-87
2022/04/23 05:00:40;;;;;;;19.83;17.98;;;9.30;99.90;;;;;;5053174;28;20225;-86
2022/04/23 05:03:10;;;;;;;20.17;18.27;;;9.30;99.90;;;;;;5053108;28;20232;-86
2022/04/23 05:05:44;;;;;;;20.30;18.30;;;9.30;99.90;;;;;;5053379;28;20228;-87
2022/04/23 05:08:12;;;;;;;20.42;18.48;;;9.30;99.90;;;;;;5053300;28;20202;-86
2022/04/23 05:10:41;;;;;;;18.83;17.08;;;9.30;99.90;;;;;;5053101;28;20296;-86
2022/04/23 05:13:09;;;;;;;22.17;18.38;;;9.30;99.90;;;;;;5053005;28;20232;-87
2022/04/23 05:15:39;;;;;;;18.67;16.83;;;9.30;99.90;;;;;;5053228;28;20293;-86
2022/04/23 05:18:07;;;;;;;18.52;16.77;;;9.30;99.90;;;;;;5053004;28;20281;-86
2022/04/23 05:20:37;;;;;;;19.85;17.67;;;9.30;99.90;;;;;;5052880;28;20229;-86
2022/04/23 05:23:06;;;;;;;18.27;16.38;;;9.30;99.90;;;;;;5052943;28;20214;-86
2022/04/23 05:25:34;;;;;;;19.15;17.20;;;9.30;99.90;;;;;;5053325;28;20225;-87
2022/04/23 05:28:03;;;;;;;17.13;15.45;;;9.30;99.90;;;;;;5053021;28;20201;-86
2022/04/23 05:30:32;;;;;;;18.20;15.95;;;9.30;99.90;;;;;;5052885;28;20205;-87
2022/04/23 05:33:00;;;;;;;15.77;14.18;;;9.30;99.90;;;;;;5052811;28;20246;-86
2022/04/23 05:35:28;;;;;;;16.10;14.50;;;9.30;99.90;;;;;;5052721;28;20287;-86
2022/04/23 05:37:58;;;;;;;16.05;14.55;;;9.30;99.90;;;;;;5052631;28;20245;-87
2022/04/23 05:40:27;;;;;;;17.27;15.07;;;9.30;99.90;;;;;;5052666;28;20297;-87
2022/04/23 05:42:58;;;;;;;16.02;14.05;;;9.30;99.90;;;;;;5053009;28;20225;-87
2022/04/23 05:45:27;;;;;;;16.42;14.73;;;9.30;99.90;;;;;;5052877;28;20205;-87
2022/04/23 05:47:55;;;;;;;15.18;13.77;;;9.30;99.90;;;;;;5052589;28;20197;-86
2022/04/23 05:50:24;;;;;;;16.13;14.52;;;9.30;99.90;;;;;;5052536;28;20261;-86
2022/04/23 05:52:53;;;;;;;16.02;14.50;;;9.30;99.90;;;;;;5052332;28;20309;-86
2022/04/23 05:55:23;;;;;;;16.58;14.80;;;9.40;99.90;;;;;;5052766;28;20294;-86
2022/04/23 05:57:52;;;;;;;15.40;13.93;;;9.40;99.90;;;;;;5052607;28;20210;-86
2022/04/23 06:00:21;;;;;;;15.75;14.35;;;9.40;99.90;;;;;;5052434;28;20214;-87
2022/04/23 06:02:49;;;;;;;15.35;13.85;;;9.50;99.90;;;;;;5052337;28;20233;-86
2022/04/23 06:05:18;;;;;;;15.07;13.57;;;9.50;99.90;;;;;;5052372;28;20276;-86
2022/04/23 06:07:47;;;;;;;15.25;13.73;;;9.50;99.90;;;;;;5052496;28;20285;-86
2022/04/23 06:10:15;;;;;;;17.40;13.43;;;9.60;99.90;;;;;;5051994;28;20245;-86
2022/04/23 06:12:45;;;;;;;13.77;12.48;;;9.50;99.90;;;;;;5052134;28;20272;-86
2022/04/23 06:15:13;;;;;;;14.25;12.77;;;9.60;99.90;;;;;;5053300;28;20305;-86
2022/04/23 06:17:41;;;;;;;14.63;13.18;;;9.60;99.90;;;;;;5056387;28;20263;-87
2022/04/23 06:20:10;;;;;;;15.45;12.57;;;9.60;99.90;;;;;;5055980;28;20284;-86
2022/04/23 06:22:39;;;;;;;14.05;12.70;;;9.60;99.90;;;;;;5056476;28;20245;-87
2022/04/23 06:25:08;;;;;;;18.08;11.73;;;9.60;99.90;;;;;;5055995;28;20236;-87
2022/04/23 06:27:37;;;;;;;14.02;12.48;;;9.60;99.90;;;;;;5056391;28;20201;-87
2022/04/23 06:30:09;;;;;;;16.10;14.50;;;9.60;99.90;;;;;;5056208;28;20193;-86
2022/04/23 06:32:37;;;;;;;14.30;12.52;;;9.60;99.90;;;;;;5056042;28;20240;-86
2022/04/23 06:35:07;;;;;;;13.55;12.23;;;9.60;99.90;;;;;;5056405;28;20288;-86
2022/04/23 06:37:40;;;;;;;16.30;12.70;;;9.50;99.90;;;;;;5055801;28;20206;-86
2022/04/23 06:40:12;;;;;;;21.35;17.40;;;9.50;99.90;;;;;;5055536;28;20226;-87
2022/04/23 06:42:41;;;;;;;16.85;15.18;;;9.50;99.90;;;;;;5056027;28;20239;-87
2022/04/23 06:45:12;;;;;;;20.95;15.80;;;9.50;99.90;;;;;;5056158;28;20209;-87
2022/04/23 06:47:41;;;;;;;23.65;15.77;;;9.50;99.90;;;;;;5055866;28;20233;-87
2022/04/23 06:50:10;;;;;;;15.20;13.70;;;9.50;99.90;;;;;;5055610;28;20206;-87
2022/04/23 06:52:38;;;;;;;18.40;16.17;;;9.60;99.90;;;;;;5055472;28;20248;-86
2022/04/23 06:55:08;;;;;;;13.90;12.23;;;9.60;99.90;;;;;;5055801;28;20232;-87
2022/04/23 06:57:44;;;;;;;18.63;15.82;;;9.60;99.90;;;;;;5055530;28;20289;-86
2022/04/23 07:00:15;;;;;;;22.60;15.63;;;9.60;99.90;;;;;;5055261;28;20227;-86
2022/04/23 07:02:44;;;;;;;15.13;13.65;;;9.60;99.90;;;;;;5055578;28;20226;-87
2022/04/23 07:05:13;;;;;;;14.07;12.68;;;9.70;99.90;;;;;;5055769;28;20202;-87
2022/04/23 07:07:41;;;;;;;15.07;13.63;;;9.70;99.90;;;;;;5055518;28;20230;-86
2022/04/23 07:10:10;;;;;;;14.30;12.88;;;9.70;99.90;;;;;;5055458;28;20249;-87
2022/04/23 07:12:39;;;;;;;16.52;14.20;;;9.70;99.90;;;;;;5055545;28;20241;-87
2022/04/23 07:15:08;;;;;;;19.27;15.18;;;9.80;99.90;;;;;;5055322;28;20258;-87
2022/04/23 07:17:38;;;;;;;15.45;13.70;;;9.80;99.90;;;;;;5056028;28;20227;-86
2022/04/23 07:20:08;;;;;;;17.42;13.52;;;9.80;99.90;;;;;;5054989;28;20321;-86
2022/04/23 07:22:36;;;;;;;15.77;14.15;;;9.80;99.90;;;;;;5055284;28;20261;-86
2022/04/23 07:25:07;;;;;;;15.48;13.95;;;9.80;99.90;;;;;;5055623;28;20232;-86
2022/04/23 07:27:35;;;;;;;15.57;14.00;;;9.90;99.90;;;;;;5055905;28;20232;-87
2022/04/23 07:30:05;;;;;;;18.25;15.35;;;9.90;99.90;;;;;;5055821;28;20289;-86
2022/04/23 07:32:33;;;;;;;13.98;12.77;;;10.00;99.90;;;;;;5055690;28;20242;-86
2022/04/23 07:37:49;;;;;;;16.25;14.65;;;10.10;99.90;;;;;;5055088;28;20288;-86
2022/04/23 07:40:17;;;;;;;14.82;13.43;;;10.10;99.90;;;;;;5054745;28;20230;-86
2022/04/23 07:42:46;;;;;;;16.42;13.65;;;10.20;99.90;;;;;;5054378;28;20279;-86
2022/04/23 07:45:15;;;;;;;15.98;14.48;;;10.20;99.90;;;;;;5054624;28;20279;-87
2022/04/23 07:47:44;;;;;;;16.50;14.93;;;10.20;99.90;;;;;;5054299;28;20229;-87
2022/04/23 07:50:14;;;;;;;20.38;15.50;;;10.20;99.90;;;;;;5054267;28;20198;-87
2022/04/23 07:52:42;;;;;;;15.38;13.98;;;10.30;99.90;;;;;;5054879;28;20295;-86
2022/04/23 07:55:12;;;;;;;15.40;14.05;;;10.40;99.90;;;;;;5054845;28;20253;-86
2022/04/23 07:57:40;;;;;;;16.50;14.80;;;10.40;99.90;;;;;;5054725;28;20205;-86
2022/04/23 08:00:09;;;;;;;15.70;14.05;;;10.60;99.90;;;;;;5054429;28;20244;-86
2022/04/23 08:02:37;;;;;;;15.15;13.75;;;10.70;99.90;;;;;;5053861;28;20226;-86
2022/04/23 08:05:09;;;;;;;30.02;15.30;;;10.80;99.90;;;;;;5054801;28;20202;-86
2022/04/23 08:07:40;;;;;;;19.33;13.65;;;10.90;99.90;;;;;;5054615;28;20301;-86
2022/04/23 08:10:10;;;;;;;15.30;13.90;;;11.00;99.90;;;;;;5054288;28;20265;-86
2022/04/23 08:12:39;;;;;;;15.80;14.25;;;11.10;99.90;;;;;;5054123;28;20313;-86
2022/04/23 08:15:08;;;;;;;15.70;14.20;;;11.20;99.90;;;;;;5054030;28;20301;-87
2022/04/23 08:17:36;;;;;;;15.88;14.23;;;11.30;99.90;;;;;;5054259;28;20201;-86
2022/04/23 08:20:06;;;;;;;14.50;13.10;;;11.40;99.90;;;;;;5054346;28;20249;-86
2022/04/23 08:22:35;;;;;;;15.38;13.80;;;11.50;99.90;;;;;;5053525;28;20239;-86
2022/04/23 08:25:06;;;;;;;19.60;14.00;;;11.50;99.90;;;;;;5054051;28;20206;-85
2022/04/23 08:27:48;;;;;;;17.08;15.40;;;11.80;99.90;;;;;;5054057;28;20275;-86
2022/04/23 08:33:02;;;;;;;17.60;14.15;;;12.20;99.90;;;;;;5054020;28;20225;-86
2022/04/23 08:35:30;;;;;;;14.60;12.77;;;12.40;99.90;;;;;;5053909;28;20287;-86
2022/04/23 08:37:59;;;;;;;14.75;13.32;;;12.60;99.90;;;;;;5053464;28;20309;-86
2022/04/23 08:40:29;;;;;;;14.68;13.20;;;12.70;99.90;;;;;;5053300;28;20236;-86
2022/04/23 08:42:59;;;;;;;16.05;14.40;;;12.90;99.90;;;;;;5053544;28;20312;-86
2022/04/23 08:45:27;;;;;;;15.25;13.70;;;13.00;99.90;;;;;;5054084;28;20269;-86
2022/04/23 08:48:00;;;;;;;15.73;14.15;;;13.20;99.90;;;;;;5053869;28;20261;-86
2022/04/23 08:50:30;;;;;;;13.70;12.30;;;13.20;99.90;;;;;;5053234;28;20205;-83
2022/04/23 08:53:01;;;;;;;13.45;12.25;;;13.20;99.90;;;;;;5053751;28;20313;-86
2022/04/23 08:55:32;;;;;;;18.02;12.95;;;13.30;99.90;;;;;;5053428;28;20297;-86
2022/04/23 08:58:00;;;;;;;13.10;11.93;;;13.50;99.90;;;;;;5053705;28;20473;-86
2022/04/23 09:00:29;;;;;;;14.05;12.13;;;13.60;99.90;;;;;;5053170;28;20225;-86
2022/04/23 09:02:57;;;;;;;17.77;13.70;;;13.70;99.90;;;;;;5053399;28;20287;-86
2022/04/23 09:05:28;;;;;;;12.73;11.50;;;13.80;99.90;;;;;;5053348;28;20201;-85
2022/04/23 09:07:57;;;;;;;14.98;13.30;;;13.80;99.90;;;;;;5053394;28;20233;-86
2022/04/23 09:10:43;;;;;;;15.20;12.93;;;14.00;99.90;;;;;;5053210;28;20233;-86
2022/04/23 09:13:12;;;;;;;13.60;12.25;;;14.10;99.90;;;;;;5052903;28;20206;-85
2022/04/23 09:24:11;;;;;;;16.05;14.10;;;14.60;99.90;;;;;;5053260;28;20205;-86
2022/04/23 09:26:42;;;;;;;23.45;14.43;;;14.70;99.90;;;;;;5053093;28;20209;-85
2022/04/23 09:29:15;;;;;;;13.15;11.98;;;14.90;99.90;;;;;;5052560;28;20239;-86
2022/04/23 09:31:44;;;;;;;15.02;13.48;;;14.90;99.90;;;;;;5052897;28;20226;-86
2022/04/23 09:34:16;;;;;;;13.23;12.07;;;14.90;99.90;;;;;;5053008;28;20206;-86
2022/04/23 09:36:49;;;;;;;12.65;11.55;;;14.90;99.90;;;;;;5052573;28;20210;-85
2022/04/23 09:39:31;;;;;;;17.98;12.93;;;15.00;99.90;;;;;;5052893;28;20247;-85
2022/04/23 09:42:13;;;;;;;14.10;12.80;;;15.20;99.90;;;;;;5052042;28;20328;-85
2022/04/23 09:44:43;;;;;;;15.65;13.30;;;15.30;99.90;;;;;;5052384;28;20206;-86
2022/04/23 09:47:11;;;;;;;13.68;12.43;;;15.50;99.90;;;;;;5052735;28;20213;-85
2022/04/23 09:49:40;;;;;;;13.65;12.35;;;15.70;99.90;;;;;;5051750;28;20208;-86
2022/04/23 09:52:11;;;;;;;13.93;12.48;;;16.00;99.90;;;;;;5052370;28;20249;-85
2022/04/23 09:54:40;;;;;;;15.57;13.93;;;16.30;99.90;;;;;;5052876;28;20206;-86
2022/04/23 09:57:08;;;;;;;19.63;12.75;;;16.50;99.90;;;;;;5052626;28;20264;-85
2022/04/23 09:59:38;;;;;;;12.57;11.48;;;16.80;99.90;;;;;;5052533;28;20272;-85
2022/04/23 10:02:13;;;;;;;18.10;12.77;;;17.40;99.90;;;;;;5052243;28;20225;-86
2022/04/23 10:04:42;;;;;;;15.05;13.45;;;17.70;99.90;;;;;;5052465;28;20201;-86
2022/04/23 10:07:11;;;;;;;13.68;12.48;;;17.90;99.90;;;;;;5052426;28;20213;-85
2022/04/23 10:09:42;;;;;;;14.43;13.13;;;17.90;99.90;;;;;;5052258;28;20288;-85
2022/04/23 10:12:15;;;;;;;13.52;12.23;;;17.80;99.90;;;;;;5051970;28;20225;-86
2022/04/23 10:14:51;;;;;;;13.00;11.85;;;17.70;99.90;;;;;;5052640;28;20240;-86
2022/04/23 10:17:20;;;;;;;13.02;11.68;;;17.40;99.90;;;;;;5052097;28;20300;-86
2022/04/23 10:19:49;;;;;;;13.23;11.95;;;17.40;99.90;;;;;;5052726;28;20269;-86
2022/04/23 10:22:22;;;;;;;12.88;11.57;;;17.50;99.90;;;;;;5051625;28;20253;-85
2022/04/23 10:25:02;;;;;;;11.27;10.27;;;17.70;99.90;;;;;;5052261;28;20240;-86
2022/04/23 10:27:32;;;;;;;13.68;12.23;;;17.60;99.90;;;;;;5052108;28;20297;-85
2022/04/23 10:30:04;;;;;;;12.77;11.57;;;17.40;99.90;;;;;;5052303;28;20248;-86
2022/04/23 10:32:38;;;;;;;14.55;13.02;;;17.50;99.90;;;;;;5052156;28;20291;-86
2022/04/23 10:35:35;;;;;;;14.55;13.05;;;17.50;99.90;;;;;;5052005;28;20300;-85
2022/04/23 10:38:21;;;;;;;12.40;11.32;;;17.20;99.90;;;;;;5052039;28;20273;-85
2022/04/23 10:40:53;;;;;;;14.50;13.15;;;16.90;99.90;;;;;;5051496;28;20256;-86
2022/04/23 10:43:21;;;;;;;14.00;12.18;;;16.60;99.90;;;;;;5052074;28;20229;-86
2022/04/23 10:45:51;;;;;;;13.80;12.48;;;16.50;99.90;;;;;;5052270;28;20236;-85
2022/04/23 10:48:24;;;;;;;14.68;13.07;;;16.30;99.90;;;;;;5052018;28;20214;-85
2022/04/23 10:51:15;;;;;;;13.23;12.13;;;16.40;99.90;;;;;;5052214;28;20197;-85
2022/04/23 10:53:55;;;;;;;13.68;12.43;;;16.70;99.90;;;;;;5052189;28;20202;-85
2022/04/23 10:56:23;;;;;;;13.60;12.43;;;16.80;99.90;;;;;;5052393;28;20221;-85
2022/04/23 10:58:52;;;;;;;12.90;11.80;;;16.80;99.90;;;;;;5052032;28;20206;-85
2022/04/23 11:01:29;;;;;;;16.27;13.73;;;16.60;99.90;;;;;;5052740;28;20222;-86
2022/04/23 11:04:13;;;;;;;13.55;12.15;;;16.50;99.90;;;;;;5055964;28;20229;-85
2022/04/23 11:12:32;;;;;;;14.52;13.23;;;16.50;99.90;;;;;;5024770;28;20317;-85
2022/04/23 11:15:01;;;;;;;12.20;11.02;;;16.50;99.90;;;;;;5055153;28;20214;-86
2022/04/23 11:18:04;;;;;;;15.30;13.65;;;16.60;99.90;;;;;;5055394;28;20294;-86
2022/04/23 11:20:36;;;;;;;14.43;13.07;;;16.70;99.90;;;;;;5054991;28;20232;-85
2022/04/23 11:23:06;;;;;;;13.60;12.35;;;16.60;99.90;;;;;;5055314;28;20218;-85
2022/04/23 11:25:34;;;;;;;13.77;12.45;;;16.70;99.90;;;;;;5055145;28;20289;-86
2022/04/23 11:28:21;;;;;;;13.68;12.38;;;16.90;99.90;;;;;;5055252;28;20202;-85
2022/04/23 11:30:50;;;;;;;13.88;12.60;;;17.00;99.90;;;;;;5054698;28;20273;-85
2022/04/23 11:33:20;;;;;;;13.50;12.20;;;16.80;99.90;;;;;;5055247;28;20209;-85
2022/04/23 11:35:48;;;;;;;15.07;13.50;;;16.70;99.90;;;;;;5055076;28;20220;-86
2022/04/23 11:38:20;;;;;;;15.13;13.63;;;16.60;99.90;;;;;;5055067;28;20252;-85
2022/04/23 11:40:48;;;;;;;14.63;13.30;;;16.60;99.90;;;;;;5054757;28;20213;-86
2022/04/23 11:43:33;;;;;;;14.45;13.00;;;16.90;99.90;;;;;;5054811;28;20228;-86
2022/04/23 11:46:03;;;;;;;13.32;12.05;;;17.10;99.90;;;;;;5055032;28;20261;-85
2022/04/23 11:48:47;;;;;;;14.95;13.35;;;17.50;99.90;;;;;;5054898;28;20205;-85
2022/04/23 11:51:16;;;;;;;13.65;12.23;;;18.00;99.90;;;;;;5054604;28;20279;-86
2022/04/23 11:53:56;;;;;;;14.73;13.23;;;18.10;99.90;;;;;;5054764;28;20301;-86
2022/04/23 11:56:27;;;;;;;13.00;11.80;;;17.90;99.90;;;;;;5054621;28;20229;-85
2022/04/23 11:58:58;;;;;;;11.30;10.30;;;17.90;99.90;;;;;;5054510;28;20297;-86
2022/04/23 12:01:27;;;;;;;11.60;10.48;;;17.90;99.90;;;;;;5054251;28;20261;-85
2022/04/23 12:03:58;;;;;;;11.63;10.52;;;18.10;99.90;;;;;;5054736;28;20212;-86
2022/04/23 12:06:27;;;;;;;12.65;11.52;;;18.20;99.90;;;;;;5054552;28;20215;-85
2022/04/23 12:09:07;;;;;;;11.57;10.57;;;18.10;99.90;;;;;;5054469;28;20232;-85
2022/04/23 12:11:35;;;;;;;13.25;11.43;;;18.00;99.90;;;;;;5054527;28;20231;-86
2022/04/23 12:14:04;;;;;;;12.68;11.00;;;18.10;99.90;;;;;;5052969;28;20270;-86
2022/04/23 12:16:35;;;;;;;11.30;10.30;;;18.30;99.90;;;;;;5054330;28;20233;-86
2022/04/23 12:19:07;;;;;;;12.63;11.45;;;18.40;99.90;;;;;;5054275;28;20298;-87
2022/04/23 12:21:37;;;;;;;12.95;11.77;;;18.60;99.90;;;;;;5053611;28;20295;-86
2022/04/23 12:24:08;;;;;;;12.48;11.27;;;18.50;99.90;;;;;;5054185;28;20202;-86
2022/04/23 12:26:38;;;;;;;12.23;11.05;;;18.40;99.90;;;;;;5054169;28;20206;-85
2022/04/23 12:40:47;;;;;;;11.07;9.98;;;16.70;99.90;;;;;;5049068;28;20209;-86
2022/04/23 12:43:28;;;;;;;11.95;10.88;;;16.40;99.90;;;;;;5053805;28;20318;-86
2022/04/23 12:46:05;;;;;;;12.88;11.45;;;16.30;99.90;;;;;;5053616;28;20209;-87
2022/04/23 12:48:49;;;;;;;13.93;12.50;;;15.90;99.90;;;;;;5053712;28;20209;-86
2022/04/23 12:51:19;;;;;;;16.63;12.82;;;15.80;99.90;;;;;;5052804;28;20237;-86
2022/04/23 12:53:48;;;;;;;14.68;13.30;;;15.70;99.90;;;;;;5053617;28;20284;-85
2022/04/23 12:56:18;;;;;;;13.27;11.98;;;15.60;99.90;;;;;;5053571;28;20280;-86
2022/04/23 12:58:47;;;;;;;14.23;12.88;;;15.50;99.90;;;;;;5053371;28;20284;-86
2022/04/23 13:01:15;;;;;;;23.88;14.35;;;15.50;99.90;;;;;;5053348;28;20312;-85
2022/04/23 13:03:45;;;;;;;16.95;14.98;;;15.50;99.90;;;;;;5052973;28;20289;-85
2022/04/23 13:09:00;;;;;;;14.68;13.27;;;16.00;99.90;;;;;;5053445;28;20300;-86
2022/04/23 13:11:30;;;;;;;18.25;12.93;;;16.40;99.90;;;;;;5052904;28;20232;-86
2022/04/23 13:14:00;;;;;;;15.30;12.68;;;16.80;99.90;;;;;;5053011;28;20211;-86
2022/04/23 13:16:30;;;;;;;14.73;12.63;;;17.10;99.90;;;;;;5052633;28;20284;-86
2022/04/23 13:18:59;;;;;;;15.15;12.55;;;17.30;99.90;;;;;;5053302;28;20241;-86
2022/04/23 13:21:29;;;;;;;12.45;11.30;;;17.40;99.90;;;;;;5052476;28;20233;-85
2022/04/23 13:24:00;;;;;;;12.00;10.90;;;17.40;99.90;;;;;;5052942;28;20285;-86
2022/04/23 13:26:29;;;;;;;10.00;9.10;;;17.40;99.90;;;;;;5053022;28;20213;-86